sensor_id;sensor_type;location;lat;lon;timestamp;temperature;humidity
84739;DHT22;74969;44.836;-0.586;2024-03-02T00:02:12;9.10;84.00
84739;DHT22;74969;44.836;-0.586;2024-03-02T00:04:38;9.00;84.00
84739;DHT22;74969;44.836;-0.586;2024-03-02T00:07:04;9.00;84.30
84739;DHT22;74969;44.836;-0.586;2024-03-02T00:09:30;9.00;84.40
84739;DHT22;74969;44.836;-0.586;2024-03-02T00:11:55;9.00;84.20
84739;DHT22;74969;44.836;-0.586;2024-03-02T00:14:22;9.00;84.20
84739;DHT22;74969;44.836;-0.586;2024-03-02T00:16:50;9.00;84.30
84739;DHT22;74969;44.836;-0.586;2024-03-02T00:19:17;9.00;84.00
84739;DHT22;74969;44.836;-0.586;2024-03-02T00:21:42;8.90;84.10
84739;DHT22;74969;44.836;-0.586;2024-03-02T00:24:21;8.90;84.10
84739;DHT22;74969;44.836;-0.586;2024-03-02T00:26:47;8.90;84.00
84739;DHT22;74969;44.836;-0.586;2024-03-02T00:29:16;8.90;84.20
84739;DHT22;74969;44.836;-0.586;2024-03-02T00:31:42;8.90;84.00
84739;DHT22;74969;44.836;-0.586;2024-03-02T00:34:08;8.90;84.10
84739;DHT22;74969;44.836;-0.586;2024-03-02T00:36:33;8.80;84.00
84739;DHT22;74969;44.836;-0.586;2024-03-02T00:38:59;8.80;84.10
84739;DHT22;74969;44.836;-0.586;2024-03-02T00:41:29;8.80;84.10
84739;DHT22;74969;44.836;-0.586;2024-03-02T00:46:23;8.80;84.20
84739;DHT22;74969;44.836;-0.586;2024-03-02T00:49:00;8.80;84.20
84739;DHT22;74969;44.836;-0.586;2024-03-02T00:51:29;8.80;84.10
84739;DHT22;74969;44.836;-0.586;2024-03-02T00:54:00;8.70;84.20
84739;DHT22;74969;44.836;-0.586;2024-03-02T00:56:29;8.70;84.20
84739;DHT22;74969;44.836;-0.586;2024-03-02T00:58:55;8.70;84.50
84739;DHT22;74969;44.836;-0.586;2024-03-02T01:01:22;8.70;84.20
84739;DHT22;74969;44.836;-0.586;2024-03-02T01:03:48;8.70;84.30
84739;DHT22;74969;44.836;-0.586;2024-03-02T01:06:15;8.70;84.60
84739;DHT22;74969;44.836;-0.586;2024-03-02T01:08:41;8.70;84.50
84739;DHT22;74969;44.836;-0.586;2024-03-02T01:11:07;8.70;84.60
84739;DHT22;74969;44.836;-0.586;2024-03-02T01:13:33;8.70;84.80
84739;DHT22;74969;44.836;-0.586;2024-03-02T01:15:59;8.60;84.70
84739;DHT22;74969;44.836;-0.586;2024-03-02T01:18:24;8.70;84.40
84739;DHT22;74969;44.836;-0.586;2024-03-02T01:20:50;8.70;84.60
84739;DHT22;74969;44.836;-0.586;2024-03-02T01:23:22;8.70;84.50
84739;DHT22;74969;44.836;-0.586;2024-03-02T01:25:48;8.70;84.40
84739;DHT22;74969;44.836;-0.586;2024-03-02T01:28:14;8.70;84.40
84739;DHT22;74969;44.836;-0.586;2024-03-02T01:30:40;8.70;84.40
84739;DHT22;74969;44.836;-0.586;2024-03-02T01:33:06;8.70;84.40
84739;DHT22;74969;44.836;-0.586;2024-03-02T01:35:32;8.70;84.30
84739;DHT22;74969;44.836;-0.586;2024-03-02T01:37:58;8.70;84.50
84739;DHT22;74969;44.836;-0.586;2024-03-02T01:40:24;8.60;84.40
84739;DHT22;74969;44.836;-0.586;2024-03-02T01:42:54;8.60;84.50
84739;DHT22;74969;44.836;-0.586;2024-03-02T01:45:20;8.60;84.30
84739;DHT22;74969;44.836;-0.586;2024-03-02T01:47:46;8.60;84.40
84739;DHT22;74969;44.836;-0.586;2024-03-02T01:50:12;8.60;83.80
84739;DHT22;74969;44.836;-0.586;2024-03-02T01:52:38;8.60;83.80
84739;DHT22;74969;44.836;-0.586;2024-03-02T01:55:05;8.60;83.80
84739;DHT22;74969;44.836;-0.586;2024-03-02T01:57:32;8.60;83.90
84739;DHT22;74969;44.836;-0.586;2024-03-02T01:59:58;8.60;83.80
84739;DHT22;74969;44.836;-0.586;2024-03-02T02:02:23;8.60;83.70
84739;DHT22;74969;44.836;-0.586;2024-03-02T02:04:49;8.60;83.60
84739;DHT22;74969;44.836;-0.586;2024-03-02T02:07:15;8.60;83.80
84739;DHT22;74969;44.836;-0.586;2024-03-02T02:09:44;8.60;83.70
84739;DHT22;74969;44.836;-0.586;2024-03-02T02:12:10;8.60;83.50
84739;DHT22;74969;44.836;-0.586;2024-03-02T02:14:36;8.50;83.60
84739;DHT22;74969;44.836;-0.586;2024-03-02T02:17:02;8.50;83.90
84739;DHT22;74969;44.836;-0.586;2024-03-02T02:19:28;8.50;83.90
84739;DHT22;74969;44.836;-0.586;2024-03-02T02:21:54;8.50;84.00
84739;DHT22;74969;44.836;-0.586;2024-03-02T02:24:20;8.50;84.10
84739;DHT22;74969;44.836;-0.586;2024-03-02T02:26:46;8.50;84.20
84739;DHT22;74969;44.836;-0.586;2024-03-02T02:29:11;8.50;84.40
84739;DHT22;74969;44.836;-0.586;2024-03-02T02:31:40;8.50;84.40
84739;DHT22;74969;44.836;-0.586;2024-03-02T02:34:06;8.50;84.50
84739;DHT22;74969;44.836;-0.586;2024-03-02T02:36:33;8.50;84.60
84739;DHT22;74969;44.836;-0.586;2024-03-02T02:39:04;8.50;84.60
84739;DHT22;74969;44.836;-0.586;2024-03-02T02:41:30;8.50;84.70
84739;DHT22;74969;44.836;-0.586;2024-03-02T02:43:56;8.50;84.80
84739;DHT22;74969;44.836;-0.586;2024-03-02T02:46:22;8.50;84.70
84739;DHT22;74969;44.836;-0.586;2024-03-02T02:48:47;8.50;84.70
84739;DHT22;74969;44.836;-0.586;2024-03-02T02:51:13;8.50;84.60
84739;DHT22;74969;44.836;-0.586;2024-03-02T02:53:39;8.50;84.90
84739;DHT22;74969;44.836;-0.586;2024-03-02T02:56:07;8.60;84.80
84739;DHT22;74969;44.836;-0.586;2024-03-02T02:58:33;8.60;84.90
84739;DHT22;74969;44.836;-0.586;2024-03-02T03:00:58;8.60;84.70
84739;DHT22;74969;44.836;-0.586;2024-03-02T03:03:24;8.60;84.80
84739;DHT22;74969;44.836;-0.586;2024-03-02T03:05:50;8.60;84.90
84739;DHT22;74969;44.836;-0.586;2024-03-02T03:08:15;8.60;84.70
84739;DHT22;74969;44.836;-0.586;2024-03-02T03:10:42;8.60;84.80
84739;DHT22;74969;44.836;-0.586;2024-03-02T03:13:07;8.70;84.90
84739;DHT22;74969;44.836;-0.586;2024-03-02T03:15:35;8.70;84.90
84739;DHT22;74969;44.836;-0.586;2024-03-02T03:18:02;8.70;85.00
84739;DHT22;74969;44.836;-0.586;2024-03-02T03:20:29;8.70;85.10
84739;DHT22;74969;44.836;-0.586;2024-03-02T03:22:56;8.70;85.10
84739;DHT22;74969;44.836;-0.586;2024-03-02T03:25:21;8.70;85.30
84739;DHT22;74969;44.836;-0.586;2024-03-02T03:27:47;8.80;85.40
84739;DHT22;74969;44.836;-0.586;2024-03-02T03:30:13;8.80;85.20
84739;DHT22;74969;44.836;-0.586;2024-03-02T03:32:38;8.80;85.40
84739;DHT22;74969;44.836;-0.586;2024-03-02T03:35:05;8.80;85.60
84739;DHT22;74969;44.836;-0.586;2024-03-02T03:37:31;8.80;85.40
84739;DHT22;74969;44.836;-0.586;2024-03-02T03:39:59;8.80;85.20
84739;DHT22;74969;44.836;-0.586;2024-03-02T03:42:25;8.80;85.20
84739;DHT22;74969;44.836;-0.586;2024-03-02T03:44:50;8.80;85.00
84739;DHT22;74969;44.836;-0.586;2024-03-02T03:47:16;8.80;84.90
84739;DHT22;74969;44.836;-0.586;2024-03-02T03:49:42;8.80;84.60
84739;DHT22;74969;44.836;-0.586;2024-03-02T03:52:07;8.80;84.40
84739;DHT22;74969;44.836;-0.586;2024-03-02T03:54:33;8.80;84.50
84739;DHT22;74969;44.836;-0.586;2024-03-02T03:56:58;8.80;84.50
84739;DHT22;74969;44.836;-0.586;2024-03-02T03:59:24;8.80;84.50
84739;DHT22;74969;44.836;-0.586;2024-03-02T04:01:50;8.80;84.20
84739;DHT22;74969;44.836;-0.586;2024-03-02T04:04:15;8.80;84.00
84739;DHT22;74969;44.836;-0.586;2024-03-02T04:06:42;8.70;83.90
84739;DHT22;74969;44.836;-0.586;2024-03-02T04:09:08;8.80;83.50
84739;DHT22;74969;44.836;-0.586;2024-03-02T04:11:33;8.80;83.80
84739;DHT22;74969;44.836;-0.586;2024-03-02T04:13:59;8.80;83.30
84739;DHT22;74969;44.836;-0.586;2024-03-02T04:16:25;8.70;83.20
84739;DHT22;74969;44.836;-0.586;2024-03-02T04:18:50;8.70;83.20
84739;DHT22;74969;44.836;-0.586;2024-03-02T04:21:16;8.70;83.10
84739;DHT22;74969;44.836;-0.586;2024-03-02T04:23:42;8.70;82.80
84739;DHT22;74969;44.836;-0.586;2024-03-02T04:26:07;8.70;82.60
84739;DHT22;74969;44.836;-0.586;2024-03-02T04:28:33;8.60;82.40
84739;DHT22;74969;44.836;-0.586;2024-03-02T04:30:59;8.60;82.60
84739;DHT22;74969;44.836;-0.586;2024-03-02T04:33:24;8.70;82.60
84739;DHT22;74969;44.836;-0.586;2024-03-02T04:35:50;8.60;82.70
84739;DHT22;74969;44.836;-0.586;2024-03-02T04:38:16;8.70;82.40
84739;DHT22;74969;44.836;-0.586;2024-03-02T04:40:41;8.60;82.20
84739;DHT22;74969;44.836;-0.586;2024-03-02T04:43:07;8.70;82.20
84739;DHT22;74969;44.836;-0.586;2024-03-02T04:45:35;8.70;82.10
84739;DHT22;74969;44.836;-0.586;2024-03-02T04:48:01;8.70;81.80
84739;DHT22;74969;44.836;-0.586;2024-03-02T04:50:27;8.60;81.80
84739;DHT22;74969;44.836;-0.586;2024-03-02T04:52:52;8.70;81.80
84739;DHT22;74969;44.836;-0.586;2024-03-02T04:55:18;8.70;81.70
84739;DHT22;74969;44.836;-0.586;2024-03-02T04:57:44;8.70;81.80
84739;DHT22;74969;44.836;-0.586;2024-03-02T05:00:10;8.70;81.70
84739;DHT22;74969;44.836;-0.586;2024-03-02T05:02:36;8.70;81.80
84739;DHT22;74969;44.836;-0.586;2024-03-02T05:05:02;8.60;82.20
84739;DHT22;74969;44.836;-0.586;2024-03-02T05:07:28;8.60;82.30
84739;DHT22;74969;44.836;-0.586;2024-03-02T05:09:54;8.60;82.80
84739;DHT22;74969;44.836;-0.586;2024-03-02T05:12:19;8.60;82.90
84739;DHT22;74969;44.836;-0.586;2024-03-02T05:15:04;8.60;82.70
84739;DHT22;74969;44.836;-0.586;2024-03-02T05:17:29;8.60;82.90
84739;DHT22;74969;44.836;-0.586;2024-03-02T05:19:55;8.60;83.20
84739;DHT22;74969;44.836;-0.586;2024-03-02T05:22:21;8.70;83.10
84739;DHT22;74969;44.836;-0.586;2024-03-02T05:24:46;8.70;82.80
84739;DHT22;74969;44.836;-0.586;2024-03-02T05:27:12;8.70;82.70
84739;DHT22;74969;44.836;-0.586;2024-03-02T05:29:38;8.70;83.00
84739;DHT22;74969;44.836;-0.586;2024-03-02T05:32:03;8.70;82.50
84739;DHT22;74969;44.836;-0.586;2024-03-02T05:34:29;8.70;83.10
84739;DHT22;74969;44.836;-0.586;2024-03-02T05:36:56;8.70;82.80
84739;DHT22;74969;44.836;-0.586;2024-03-02T05:39:23;8.70;82.90
84739;DHT22;74969;44.836;-0.586;2024-03-02T05:41:49;8.70;83.00
84739;DHT22;74969;44.836;-0.586;2024-03-02T05:44:14;8.70;82.80
84739;DHT22;74969;44.836;-0.586;2024-03-02T05:46:41;8.80;82.70
84739;DHT22;74969;44.836;-0.586;2024-03-02T05:49:07;8.80;83.10
84739;DHT22;74969;44.836;-0.586;2024-03-02T05:51:33;8.90;82.80
84739;DHT22;74969;44.836;-0.586;2024-03-02T05:53:59;8.80;83.20
84739;DHT22;74969;44.836;-0.586;2024-03-02T05:56:24;8.80;83.00
84739;DHT22;74969;44.836;-0.586;2024-03-02T05:58:50;8.80;83.40
84739;DHT22;74969;44.836;-0.586;2024-03-02T06:01:19;8.90;83.60
84739;DHT22;74969;44.836;-0.586;2024-03-02T06:03:44;8.90;83.60
84739;DHT22;74969;44.836;-0.586;2024-03-02T06:06:10;8.90;83.50
84739;DHT22;74969;44.836;-0.586;2024-03-02T06:08:36;8.90;83.60
84739;DHT22;74969;44.836;-0.586;2024-03-02T06:11:02;8.90;83.50
84739;DHT22;74969;44.836;-0.586;2024-03-02T06:13:27;8.90;83.50
84739;DHT22;74969;44.836;-0.586;2024-03-02T06:15:53;8.90;83.60
84739;DHT22;74969;44.836;-0.586;2024-03-02T06:18:19;8.80;84.20
84739;DHT22;74969;44.836;-0.586;2024-03-02T06:20:44;8.90;84.30
84739;DHT22;74969;44.836;-0.586;2024-03-02T06:23:10;8.90;84.10
84739;DHT22;74969;44.836;-0.586;2024-03-02T06:25:36;8.90;84.10
84739;DHT22;74969;44.836;-0.586;2024-03-02T06:28:01;8.90;84.20
84739;DHT22;74969;44.836;-0.586;2024-03-02T06:30:27;8.90;83.90
84739;DHT22;74969;44.836;-0.586;2024-03-02T06:32:53;8.90;84.20
84739;DHT22;74969;44.836;-0.586;2024-03-02T06:35:19;9.00;84.20
84739;DHT22;74969;44.836;-0.586;2024-03-02T06:37:45;9.00;83.90
84739;DHT22;74969;44.836;-0.586;2024-03-02T06:40:10;9.00;84.00
84739;DHT22;74969;44.836;-0.586;2024-03-02T06:42:36;9.00;84.30
84739;DHT22;74969;44.836;-0.586;2024-03-02T06:45:03;8.90;83.90
84739;DHT22;74969;44.836;-0.586;2024-03-02T06:47:28;8.90;84.20
84739;DHT22;74969;44.836;-0.586;2024-03-02T06:49:54;8.90;84.30
84739;DHT22;74969;44.836;-0.586;2024-03-02T06:52:20;8.90;84.20
84739;DHT22;74969;44.836;-0.586;2024-03-02T06:54:46;8.90;84.30
84739;DHT22;74969;44.836;-0.586;2024-03-02T06:57:12;8.90;84.40
84739;DHT22;74969;44.836;-0.586;2024-03-02T06:59:38;8.90;84.00
84739;DHT22;74969;44.836;-0.586;2024-03-02T07:02:03;8.90;84.10
84739;DHT22;74969;44.836;-0.586;2024-03-02T07:04:29;8.90;84.00
84739;DHT22;74969;44.836;-0.586;2024-03-02T07:06:55;8.80;83.40
84739;DHT22;74969;44.836;-0.586;2024-03-02T07:09:20;8.70;83.80
84739;DHT22;74969;44.836;-0.586;2024-03-02T07:11:48;8.70;84.30
84739;DHT22;74969;44.836;-0.586;2024-03-02T07:14:14;8.60;84.50
84739;DHT22;74969;44.836;-0.586;2024-03-02T07:16:40;8.60;85.00
84739;DHT22;74969;44.836;-0.586;2024-03-02T07:19:08;8.60;85.00
84739;DHT22;74969;44.836;-0.586;2024-03-02T07:21:34;8.60;85.20
84739;DHT22;74969;44.836;-0.586;2024-03-02T07:24:00;8.70;85.10
84739;DHT22;74969;44.836;-0.586;2024-03-02T07:26:29;8.70;85.30
84739;DHT22;74969;44.836;-0.586;2024-03-02T07:28:56;8.70;85.40
84739;DHT22;74969;44.836;-0.586;2024-03-02T07:31:22;8.70;85.00
84739;DHT22;74969;44.836;-0.586;2024-03-02T07:33:48;8.70;84.80
84739;DHT22;74969;44.836;-0.586;2024-03-02T07:36:14;8.70;85.00
84739;DHT22;74969;44.836;-0.586;2024-03-02T07:38:39;8.70;84.90
84739;DHT22;74969;44.836;-0.586;2024-03-02T07:41:06;8.70;84.80
84739;DHT22;74969;44.836;-0.586;2024-03-02T07:43:33;8.70;84.90
84739;DHT22;74969;44.836;-0.586;2024-03-02T07:45:59;8.80;84.90
84739;DHT22;74969;44.836;-0.586;2024-03-02T07:48:25;8.80;84.70
84739;DHT22;74969;44.836;-0.586;2024-03-02T07:50:51;8.80;84.90
84739;DHT22;74969;44.836;-0.586;2024-03-02T07:53:16;8.80;85.00
84739;DHT22;74969;44.836;-0.586;2024-03-02T07:55:42;8.80;84.70
84739;DHT22;74969;44.836;-0.586;2024-03-02T07:58:08;8.80;84.80
84739;DHT22;74969;44.836;-0.586;2024-03-02T08:00:34;8.80;84.90
84739;DHT22;74969;44.836;-0.586;2024-03-02T08:03:00;8.80;85.00
84739;DHT22;74969;44.836;-0.586;2024-03-02T08:05:26;8.80;84.90
84739;DHT22;74969;44.836;-0.586;2024-03-02T08:07:53;8.80;84.70
84739;DHT22;74969;44.836;-0.586;2024-03-02T08:10:19;8.70;84.40
84739;DHT22;74969;44.836;-0.586;2024-03-02T08:12:45;8.70;84.10
84739;DHT22;74969;44.836;-0.586;2024-03-02T08:15:11;8.70;84.40
84739;DHT22;74969;44.836;-0.586;2024-03-02T08:17:39;8.70;84.00
84739;DHT22;74969;44.836;-0.586;2024-03-02T08:20:11;8.70;84.20
84739;DHT22;74969;44.836;-0.586;2024-03-02T08:22:38;8.80;84.10
84739;DHT22;74969;44.836;-0.586;2024-03-02T08:25:04;8.80;83.80
84739;DHT22;74969;44.836;-0.586;2024-03-02T08:27:30;8.80;84.00
84739;DHT22;74969;44.836;-0.586;2024-03-02T08:29:57;8.80;83.60
84739;DHT22;74969;44.836;-0.586;2024-03-02T08:32:23;8.70;83.20
84739;DHT22;74969;44.836;-0.586;2024-03-02T08:34:48;8.70;83.70
84739;DHT22;74969;44.836;-0.586;2024-03-02T08:37:14;8.70;84.00
84739;DHT22;74969;44.836;-0.586;2024-03-02T08:39:40;8.70;84.00
84739;DHT22;74969;44.836;-0.586;2024-03-02T08:42:06;8.70;83.70
84739;DHT22;74969;44.836;-0.586;2024-03-02T08:44:31;8.80;84.20
84739;DHT22;74969;44.836;-0.586;2024-03-02T08:46:58;8.90;83.90
84739;DHT22;74969;44.836;-0.586;2024-03-02T08:49:24;8.90;83.90
84739;DHT22;74969;44.836;-0.586;2024-03-02T08:51:50;9.00;83.50
84739;DHT22;74969;44.836;-0.586;2024-03-02T08:54:21;9.00;83.70
84739;DHT22;74969;44.836;-0.586;2024-03-02T08:56:48;9.10;83.60
84739;DHT22;74969;44.836;-0.586;2024-03-02T08:59:14;9.10;83.60
84739;DHT22;74969;44.836;-0.586;2024-03-02T09:01:40;9.30;82.90
84739;DHT22;74969;44.836;-0.586;2024-03-02T09:04:07;9.60;82.40
84739;DHT22;74969;44.836;-0.586;2024-03-02T09:06:36;9.70;82.10
84739;DHT22;74969;44.836;-0.586;2024-03-02T09:09:02;9.90;81.10
84739;DHT22;74969;44.836;-0.586;2024-03-02T09:11:28;10.00;81.70
84739;DHT22;74969;44.836;-0.586;2024-03-02T09:13:54;10.10;80.50
84739;DHT22;74969;44.836;-0.586;2024-03-02T09:16:21;10.20;80.50
84739;DHT22;74969;44.836;-0.586;2024-03-02T09:18:47;10.10;80.50
84739;DHT22;74969;44.836;-0.586;2024-03-02T09:21:12;10.10;80.00
84739;DHT22;74969;44.836;-0.586;2024-03-02T09:23:38;10.00;80.50
84739;DHT22;74969;44.836;-0.586;2024-03-02T09:26:05;10.00;80.10
84739;DHT22;74969;44.836;-0.586;2024-03-02T09:28:31;9.90;80.40
84739;DHT22;74969;44.836;-0.586;2024-03-02T09:30:57;9.90;80.60
84739;DHT22;74969;44.836;-0.586;2024-03-02T09:33:22;10.00;80.70
84739;DHT22;74969;44.836;-0.586;2024-03-02T09:35:49;10.10;79.90
84739;DHT22;74969;44.836;-0.586;2024-03-02T09:38:14;10.10;79.80
84739;DHT22;74969;44.836;-0.586;2024-03-02T09:40:41;10.20;79.20
84739;DHT22;74969;44.836;-0.586;2024-03-02T09:43:07;10.20;79.90
84739;DHT22;74969;44.836;-0.586;2024-03-02T09:45:33;10.30;79.20
84739;DHT22;74969;44.836;-0.586;2024-03-02T09:47:59;10.30;79.10
84739;DHT22;74969;44.836;-0.586;2024-03-02T09:50:25;10.30;78.80
84739;DHT22;74969;44.836;-0.586;2024-03-02T09:52:51;10.40;79.30
84739;DHT22;74969;44.836;-0.586;2024-03-02T09:55:19;10.40;78.20
84739;DHT22;74969;44.836;-0.586;2024-03-02T09:57:45;10.40;78.20
84739;DHT22;74969;44.836;-0.586;2024-03-02T10:00:11;10.30;77.90
84739;DHT22;74969;44.836;-0.586;2024-03-02T10:02:41;10.30;77.60
84739;DHT22;74969;44.836;-0.586;2024-03-02T10:05:10;10.30;78.00
84739;DHT22;74969;44.836;-0.586;2024-03-02T10:07:37;10.40;77.90
84739;DHT22;74969;44.836;-0.586;2024-03-02T10:10:15;10.40;77.30
84739;DHT22;74969;44.836;-0.586;2024-03-02T10:12:41;10.40;77.40
84739;DHT22;74969;44.836;-0.586;2024-03-02T10:15:07;10.60;77.20
84739;DHT22;74969;44.836;-0.586;2024-03-02T10:17:35;10.60;76.50
84739;DHT22;74969;44.836;-0.586;2024-03-02T10:20:21;10.70;76.70
84739;DHT22;74969;44.836;-0.586;2024-03-02T10:22:46;10.80;76.60
84739;DHT22;74969;44.836;-0.586;2024-03-02T10:25:31;10.90;76.20
84739;DHT22;74969;44.836;-0.586;2024-03-02T10:28:00;11.00;76.80
84739;DHT22;74969;44.836;-0.586;2024-03-02T10:30:27;11.10;75.70
84739;DHT22;74969;44.836;-0.586;2024-03-02T10:32:56;11.20;74.60
84739;DHT22;74969;44.836;-0.586;2024-03-02T10:35:22;11.20;74.50
84739;DHT22;74969;44.836;-0.586;2024-03-02T10:37:52;11.20;74.50
84739;DHT22;74969;44.836;-0.586;2024-03-02T10:40:20;11.30;73.80
84739;DHT22;74969;44.836;-0.586;2024-03-02T10:42:47;11.30;73.80
84739;DHT22;74969;44.836;-0.586;2024-03-02T10:45:15;11.40;73.50
84739;DHT22;74969;44.836;-0.586;2024-03-02T10:47:42;11.40;73.60
84739;DHT22;74969;44.836;-0.586;2024-03-02T10:50:09;11.50;72.90
84739;DHT22;74969;44.836;-0.586;2024-03-02T10:52:35;11.60;72.80
84739;DHT22;74969;44.836;-0.586;2024-03-02T10:55:02;11.70;72.30
84739;DHT22;74969;44.836;-0.586;2024-03-02T10:57:36;11.70;72.30
84739;DHT22;74969;44.836;-0.586;2024-03-02T11:00:06;11.80;72.00
84739;DHT22;74969;44.836;-0.586;2024-03-02T11:02:35;11.80;69.90
84739;DHT22;74969;44.836;-0.586;2024-03-02T11:05:04;11.90;69.90
84739;DHT22;74969;44.836;-0.586;2024-03-02T11:07:33;11.90;70.00
84739;DHT22;74969;44.836;-0.586;2024-03-02T11:10:01;11.90;69.50
84739;DHT22;74969;44.836;-0.586;2024-03-02T11:12:39;11.90;69.20
84739;DHT22;74969;44.836;-0.586;2024-03-02T11:15:11;12.00;68.50
84739;DHT22;74969;44.836;-0.586;2024-03-02T11:17:41;12.00;68.60
84739;DHT22;74969;44.836;-0.586;2024-03-02T11:20:08;12.00;68.30
84739;DHT22;74969;44.836;-0.586;2024-03-02T11:22:36;12.00;67.60
84739;DHT22;74969;44.836;-0.586;2024-03-02T11:25:01;12.00;68.30
84739;DHT22;74969;44.836;-0.586;2024-03-02T11:33:07;12.10;69.00
84739;DHT22;74969;44.836;-0.586;2024-03-02T11:35:36;12.10;68.50
84739;DHT22;74969;44.836;-0.586;2024-03-02T11:38:06;12.00;67.90
84739;DHT22;74969;44.836;-0.586;2024-03-02T11:40:32;12.00;67.90
84739;DHT22;74969;44.836;-0.586;2024-03-02T11:43:01;12.00;68.40
84739;DHT22;74969;44.836;-0.586;2024-03-02T11:45:27;12.00;69.50
84739;DHT22;74969;44.836;-0.586;2024-03-02T11:47:57;11.90;69.50
84739;DHT22;74969;44.836;-0.586;2024-03-02T11:50:39;11.80;69.70
84739;DHT22;74969;44.836;-0.586;2024-03-02T11:53:06;11.80;71.00
84739;DHT22;74969;44.836;-0.586;2024-03-02T11:55:35;11.80;70.60
84739;DHT22;74969;44.836;-0.586;2024-03-02T11:58:06;11.70;69.90
84739;DHT22;74969;44.836;-0.586;2024-03-02T12:00:33;11.60;71.10
84739;DHT22;74969;44.836;-0.586;2024-03-02T12:05:28;11.60;71.30
84739;DHT22;74969;44.836;-0.586;2024-03-02T12:08:05;11.60;70.90
84739;DHT22;74969;44.836;-0.586;2024-03-02T12:10:32;11.50;71.60
84739;DHT22;74969;44.836;-0.586;2024-03-02T12:13:02;11.40;71.90
84739;DHT22;74969;44.836;-0.586;2024-03-02T12:15:30;11.30;72.50
84739;DHT22;74969;44.836;-0.586;2024-03-02T12:17:58;11.20;73.60
84739;DHT22;74969;44.836;-0.586;2024-03-02T12:20:25;11.20;73.90
84739;DHT22;74969;44.836;-0.586;2024-03-02T12:22:52;11.20;73.40
84739;DHT22;74969;44.836;-0.586;2024-03-02T12:25:22;10.60;72.60
84739;DHT22;74969;44.836;-0.586;2024-03-02T12:27:50;10.10;74.60
84739;DHT22;74969;44.836;-0.586;2024-03-02T12:30:19;9.80;75.90
84739;DHT22;74969;44.836;-0.586;2024-03-02T12:32:45;9.60;76.10
84739;DHT22;74969;44.836;-0.586;2024-03-02T12:35:12;9.30;77.00
84739;DHT22;74969;44.836;-0.586;2024-03-02T12:37:50;9.20;77.80
84739;DHT22;74969;44.836;-0.586;2024-03-02T12:40:17;9.10;78.60
84739;DHT22;74969;44.836;-0.586;2024-03-02T12:42:44;9.10;78.90
84739;DHT22;74969;44.836;-0.586;2024-03-02T12:45:11;9.00;78.70
84739;DHT22;74969;44.836;-0.586;2024-03-02T12:47:38;8.90;78.40
84739;DHT22;74969;44.836;-0.586;2024-03-02T12:50:04;8.80;78.90
84739;DHT22;74969;44.836;-0.586;2024-03-02T12:52:31;8.90;79.10
84739;DHT22;74969;44.836;-0.586;2024-03-02T12:55:04;8.90;78.70
84739;DHT22;74969;44.836;-0.586;2024-03-02T12:57:31;8.90;79.20
84739;DHT22;74969;44.836;-0.586;2024-03-02T13:00:02;8.90;79.10
84739;DHT22;74969;44.836;-0.586;2024-03-02T13:02:35;8.90;78.70
84739;DHT22;74969;44.836;-0.586;2024-03-02T13:05:01;8.90;78.70
84739;DHT22;74969;44.836;-0.586;2024-03-02T13:07:27;8.90;79.00
84739;DHT22;74969;44.836;-0.586;2024-03-02T13:09:53;8.90;78.70
84739;DHT22;74969;44.836;-0.586;2024-03-02T13:12:21;8.90;77.20
84739;DHT22;74969;44.836;-0.586;2024-03-02T13:14:51;8.90;78.30
84739;DHT22;74969;44.836;-0.586;2024-03-02T13:17:20;9.10;78.50
84739;DHT22;74969;44.836;-0.586;2024-03-02T13:19:59;9.20;78.40
84739;DHT22;74969;44.836;-0.586;2024-03-02T13:22:25;9.20;77.60
84739;DHT22;74969;44.836;-0.586;2024-03-02T13:24:52;9.10;78.20
84739;DHT22;74969;44.836;-0.586;2024-03-02T13:27:20;9.10;78.00
84739;DHT22;74969;44.836;-0.586;2024-03-02T13:29:46;9.00;77.90
84739;DHT22;74969;44.836;-0.586;2024-03-02T13:32:16;8.90;78.40
84739;DHT22;74969;44.836;-0.586;2024-03-02T13:34:42;9.00;79.00
84739;DHT22;74969;44.836;-0.586;2024-03-02T13:37:08;9.10;78.50
84739;DHT22;74969;44.836;-0.586;2024-03-02T13:39:34;9.00;77.70
84739;DHT22;74969;44.836;-0.586;2024-03-02T13:42:07;8.80;78.70
84739;DHT22;74969;44.836;-0.586;2024-03-02T13:44:34;8.90;79.70
84739;DHT22;74969;44.836;-0.586;2024-03-02T13:47:03;9.00;79.90
84739;DHT22;74969;44.836;-0.586;2024-03-02T13:49:29;9.10;79.80
84739;DHT22;74969;44.836;-0.586;2024-03-02T13:52:07;9.10;79.70
84739;DHT22;74969;44.836;-0.586;2024-03-02T13:54:42;9.10;78.80
84739;DHT22;74969;44.836;-0.586;2024-03-02T13:57:08;9.00;79.20
84739;DHT22;74969;44.836;-0.586;2024-03-02T13:59:35;9.00;79.50
84739;DHT22;74969;44.836;-0.586;2024-03-02T14:02:02;9.00;79.60
84739;DHT22;74969;44.836;-0.586;2024-03-02T14:04:35;9.00;79.70
84739;DHT22;74969;44.836;-0.586;2024-03-02T14:07:02;9.00;79.50
84739;DHT22;74969;44.836;-0.586;2024-03-02T14:09:28;8.90;79.40
84739;DHT22;74969;44.836;-0.586;2024-03-02T14:11:54;8.90;79.90
84739;DHT22;74969;44.836;-0.586;2024-03-02T14:14:20;8.80;80.00
84739;DHT22;74969;44.836;-0.586;2024-03-02T14:16:46;8.80;80.10
84739;DHT22;74969;44.836;-0.586;2024-03-02T14:19:12;8.80;81.00
84739;DHT22;74969;44.836;-0.586;2024-03-02T14:21:39;8.90;80.70
84739;DHT22;74969;44.836;-0.586;2024-03-02T14:24:04;9.00;80.30
84739;DHT22;74969;44.836;-0.586;2024-03-02T14:26:32;9.00;80.00
84739;DHT22;74969;44.836;-0.586;2024-03-02T14:28:59;8.90;80.40
84739;DHT22;74969;44.836;-0.586;2024-03-02T14:31:26;9.00;80.50
84739;DHT22;74969;44.836;-0.586;2024-03-02T14:33:53;8.90;80.70
84739;DHT22;74969;44.836;-0.586;2024-03-02T14:36:19;8.80;80.70
84739;DHT22;74969;44.836;-0.586;2024-03-02T14:38:45;8.80;81.50
84739;DHT22;74969;44.836;-0.586;2024-03-02T14:41:11;8.80;80.90
84739;DHT22;74969;44.836;-0.586;2024-03-02T14:43:37;8.80;81.50
84739;DHT22;74969;44.836;-0.586;2024-03-02T14:46:03;8.80;81.60
84739;DHT22;74969;44.836;-0.586;2024-03-02T14:48:29;8.80;81.90
84739;DHT22;74969;44.836;-0.586;2024-03-02T14:50:55;8.80;82.60
84739;DHT22;74969;44.836;-0.586;2024-03-02T14:53:21;8.90;82.30
84739;DHT22;74969;44.836;-0.586;2024-03-02T14:55:46;8.90;81.80
84739;DHT22;74969;44.836;-0.586;2024-03-02T14:58:12;8.90;82.20
84739;DHT22;74969;44.836;-0.586;2024-03-02T15:00:38;9.00;82.00
84739;DHT22;74969;44.836;-0.586;2024-03-02T15:03:04;9.00;82.50
84739;DHT22;74969;44.836;-0.586;2024-03-02T15:05:33;9.10;82.30
84739;DHT22;74969;44.836;-0.586;2024-03-02T15:07:58;9.10;82.30
84739;DHT22;74969;44.836;-0.586;2024-03-02T15:10:27;9.10;82.10
84739;DHT22;74969;44.836;-0.586;2024-03-02T15:12:53;9.10;81.80
84739;DHT22;74969;44.836;-0.586;2024-03-02T15:15:19;9.10;82.20
84739;DHT22;74969;44.836;-0.586;2024-03-02T15:17:44;9.10;82.80
84739;DHT22;74969;44.836;-0.586;2024-03-02T15:20:10;9.20;82.80
84739;DHT22;74969;44.836;-0.586;2024-03-02T15:22:36;9.20;82.80
84739;DHT22;74969;44.836;-0.586;2024-03-02T15:25:02;9.30;83.00
84739;DHT22;74969;44.836;-0.586;2024-03-02T15:27:28;9.30;82.80
84739;DHT22;74969;44.836;-0.586;2024-03-02T15:29:54;9.30;82.90
84739;DHT22;74969;44.836;-0.586;2024-03-02T15:32:21;9.40;82.10
84739;DHT22;74969;44.836;-0.586;2024-03-02T15:34:46;9.30;82.20
84739;DHT22;74969;44.836;-0.586;2024-03-02T15:37:12;9.30;81.90